sensor_id;sensor_type;location;lat;lon;timestamp;temperature;humidity
59660;DHT22;45534;52.690;6.268;2024-02-21T00:00:52;9.60;99.90
59660;DHT22;45534;52.690;6.268;2024-02-21T00:03:18;9.60;99.90
59660;DHT22;45534;52.690;6.268;2024-02-21T00:05:44;9.60;99.90
59660;DHT22;45534;52.690;6.268;2024-02-21T00:08:09;9.50;99.90
59660;DHT22;45534;52.690;6.268;2024-02-21T00:10:35;9.50;99.90
59660;DHT22;45534;52.690;6.268;2024-02-21T00:13:01;9.50;99.90
59660;DHT22;45534;52.690;6.268;2024-02-21T00:15:27;9.50;99.90
59660;DHT22;45534;52.690;6.268;2024-02-21T00:17:53;9.50;99.90
59660;DHT22;45534;52.690;6.268;2024-02-21T00:20:19;9.50;99.90
59660;DHT22;45534;52.690;6.268;2024-02-21T00:22:45;9.50;99.90
59660;DHT22;45534;52.690;6.268;2024-02-21T00:25:11;9.40;99.90
59660;DHT22;45534;52.690;6.268;2024-02-21T00:27:37;9.40;99.90
59660;DHT22;45534;52.690;6.268;2024-02-21T00:30:04;9.50;99.90
59660;DHT22;45534;52.690;6.268;2024-02-21T00:32:30;9.50;99.90
59660;DHT22;45534;52.690;6.268;2024-02-21T00:34:57;9.40;99.90
59660;DHT22;45534;52.690;6.268;2024-02-21T00:37:23;9.40;99.90
59660;DHT22;45534;52.690;6.268;2024-02-21T00:39:49;9.40;99.90
59660;DHT22;45534;52.690;6.268;2024-02-21T00:42:14;9.40;99.90
59660;DHT22;45534;52.690;6.268;2024-02-21T00:44:40;9.40;99.90
59660;DHT22;45534;52.690;6.268;2024-02-21T00:47:06;9.40;99.90
59660;DHT22;45534;52.690;6.268;2024-02-21T00:49:31;9.40;99.90
59660;DHT22;45534;52.690;6.268;2024-02-21T00:51:57;9.40;99.90
59660;DHT22;45534;52.690;6.268;2024-02-21T00:54:23;9.40;99.90
59660;DHT22;45534;52.690;6.268;2024-02-21T00:56:48;9.30;99.90
59660;DHT22;45534;52.690;6.268;2024-02-21T00:59:14;9.30;99.90
59660;DHT22;45534;52.690;6.268;2024-02-21T01:01:40;9.30;99.90
59660;DHT22;45534;52.690;6.268;2024-02-21T01:04:09;9.20;99.90
59660;DHT22;45534;52.690;6.268;2024-02-21T01:06:34;9.20;99.90
59660;DHT22;45534;52.690;6.268;2024-02-21T01:09:00;9.20;99.90
59660;DHT22;45534;52.690;6.268;2024-02-21T01:11:26;9.20;99.90
59660;DHT22;45534;52.690;6.268;2024-02-21T01:13:53;9.20;99.90
59660;DHT22;45534;52.690;6.268;2024-02-21T01:16:18;9.20;99.90
59660;DHT22;45534;52.690;6.268;2024-02-21T01:18:44;9.20;99.90
59660;DHT22;45534;52.690;6.268;2024-02-21T01:21:10;9.10;99.90
59660;DHT22;45534;52.690;6.268;2024-02-21T01:23:36;9.10;99.90
59660;DHT22;45534;52.690;6.268;2024-02-21T01:26:05;9.10;99.90
59660;DHT22;45534;52.690;6.268;2024-02-21T01:28:34;9.10;99.90
59660;DHT22;45534;52.690;6.268;2024-02-21T01:31:00;9.10;99.90
59660;DHT22;45534;52.690;6.268;2024-02-21T01:33:25;9.10;99.90
59660;DHT22;45534;52.690;6.268;2024-02-21T01:35:51;9.10;99.90
59660;DHT22;45534;52.690;6.268;2024-02-21T01:38:18;9.10;99.90
59660;DHT22;45534;52.690;6.268;2024-02-21T01:40:43;9.10;99.90
59660;DHT22;45534;52.690;6.268;2024-02-21T01:43:21;9.10;99.90
59660;DHT22;45534;52.690;6.268;2024-02-21T01:45:50;9.20;99.90
59660;DHT22;45534;52.690;6.268;2024-02-21T01:48:19;9.20;99.90
59660;DHT22;45534;52.690;6.268;2024-02-21T01:50:46;9.20;99.90
59660;DHT22;45534;52.690;6.268;2024-02-21T01:53:14;9.20;99.90
59660;DHT22;45534;52.690;6.268;2024-02-21T01:55:47;9.20;99.90
59660;DHT22;45534;52.690;6.268;2024-02-21T01:58:16;9.20;99.90
59660;DHT22;45534;52.690;6.268;2024-02-21T02:00:43;9.20;99.90
59660;DHT22;45534;52.690;6.268;2024-02-21T02:03:12;9.20;99.90
59660;DHT22;45534;52.690;6.268;2024-02-21T02:05:44;9.20;99.90
59660;DHT22;45534;52.690;6.268;2024-02-21T02:08:18;9.20;99.90
59660;DHT22;45534;52.690;6.268;2024-02-21T02:10:44;9.20;99.90
59660;DHT22;45534;52.690;6.268;2024-02-21T02:13:11;9.10;99.90
59660;DHT22;45534;52.690;6.268;2024-02-21T02:15:40;9.10;99.90
59660;DHT22;45534;52.690;6.268;2024-02-21T02:18:06;9.10;99.90
59660;DHT22;45534;52.690;6.268;2024-02-21T02:20:32;9.00;99.90
59660;DHT22;45534;52.690;6.268;2024-02-21T02:22:59;8.90;99.90
59660;DHT22;45534;52.690;6.268;2024-02-21T02:25:26;8.90;99.90
59660;DHT22;45534;52.690;6.268;2024-02-21T02:27:53;8.90;99.90
59660;DHT22;45534;52.690;6.268;2024-02-21T02:30:18;8.90;99.90
59660;DHT22;45534;52.690;6.268;2024-02-21T02:32:45;8.90;99.90
59660;DHT22;45534;52.690;6.268;2024-02-21T02:35:12;8.90;99.90
59660;DHT22;45534;52.690;6.268;2024-02-21T02:37:37;8.90;99.90
59660;DHT22;45534;52.690;6.268;2024-02-21T02:40:08;8.90;99.90
59660;DHT22;45534;52.690;6.268;2024-02-21T02:42:34;8.90;99.90
59660;DHT22;45534;52.690;6.268;2024-02-21T02:44:59;8.90;99.90
59660;DHT22;45534;52.690;6.268;2024-02-21T02:47:25;8.90;99.90
59660;DHT22;45534;52.690;6.268;2024-02-21T02:49:50;9.00;99.90
59660;DHT22;45534;52.690;6.268;2024-02-21T02:52:17;9.00;99.90
59660;DHT22;45534;52.690;6.268;2024-02-21T02:54:45;8.90;99.90
59660;DHT22;45534;52.690;6.268;2024-02-21T02:57:11;9.00;99.90
59660;DHT22;45534;52.690;6.268;2024-02-21T02:59:36;8.90;99.90
59660;DHT22;45534;52.690;6.268;2024-02-21T03:02:02;8.90;99.90
59660;DHT22;45534;52.690;6.268;2024-02-21T03:04:28;8.90;99.90
59660;DHT22;45534;52.690;6.268;2024-02-21T03:06:53;8.90;99.90
59660;DHT22;45534;52.690;6.268;2024-02-21T03:09:19;8.90;99.90
59660;DHT22;45534;52.690;6.268;2024-02-21T03:11:45;8.90;99.90
59660;DHT22;45534;52.690;6.268;2024-02-21T03:14:10;8.90;99.90
59660;DHT22;45534;52.690;6.268;2024-02-21T03:16:36;8.90;99.90
59660;DHT22;45534;52.690;6.268;2024-02-21T03:19:02;8.90;99.90
59660;DHT22;45534;52.690;6.268;2024-02-21T03:21:28;8.90;99.90
59660;DHT22;45534;52.690;6.268;2024-02-21T03:23:54;8.90;99.90
59660;DHT22;45534;52.690;6.268;2024-02-21T03:26:20;8.90;99.90
59660;DHT22;45534;52.690;6.268;2024-02-21T03:28:45;8.90;99.90
59660;DHT22;45534;52.690;6.268;2024-02-21T03:31:12;8.90;99.90
59660;DHT22;45534;52.690;6.268;2024-02-21T03:33:42;8.90;99.90
59660;DHT22;45534;52.690;6.268;2024-02-21T03:36:13;8.90;99.90
59660;DHT22;45534;52.690;6.268;2024-02-21T03:38:39;8.90;99.90
59660;DHT22;45534;52.690;6.268;2024-02-21T03:41:05;8.90;99.90
59660;DHT22;45534;52.690;6.268;2024-02-21T03:43:31;8.90;99.90
59660;DHT22;45534;52.690;6.268;2024-02-21T03:45:57;8.90;99.90
59660;DHT22;45534;52.690;6.268;2024-02-21T03:48:22;8.90;99.90
59660;DHT22;45534;52.690;6.268;2024-02-21T03:50:48;9.00;99.90
59660;DHT22;45534;52.690;6.268;2024-02-21T03:53:13;8.90;99.90
59660;DHT22;45534;52.690;6.268;2024-02-21T03:55:39;8.90;99.90
59660;DHT22;45534;52.690;6.268;2024-02-21T03:58:05;9.00;99.90
59660;DHT22;45534;52.690;6.268;2024-02-21T04:00:30;9.00;99.90
59660;DHT22;45534;52.690;6.268;2024-02-21T04:02:56;9.00;99.90
59660;DHT22;45534;52.690;6.268;2024-02-21T04:05:22;9.00;99.90
59660;DHT22;45534;52.690;6.268;2024-02-21T04:07:47;9.00;99.90
59660;DHT22;45534;52.690;6.268;2024-02-21T04:10:13;9.00;99.90
59660;DHT22;45534;52.690;6.268;2024-02-21T04:12:39;9.00;99.90
59660;DHT22;45534;52.690;6.268;2024-02-21T04:15:05;9.00;99.90
59660;DHT22;45534;52.690;6.268;2024-02-21T04:17:31;9.00;99.90
59660;DHT22;45534;52.690;6.268;2024-02-21T04:20:03;9.00;99.90
59660;DHT22;45534;52.690;6.268;2024-02-21T04:22:31;9.00;99.90
59660;DHT22;45534;52.690;6.268;2024-02-21T04:24:59;9.00;99.90
59660;DHT22;45534;52.690;6.268;2024-02-21T04:27:25;9.00;99.90
59660;DHT22;45534;52.690;6.268;2024-02-21T04:29:52;9.00;99.90
59660;DHT22;45534;52.690;6.268;2024-02-21T04:32:18;9.00;99.90
59660;DHT22;45534;52.690;6.268;2024-02-21T04:34:44;9.00;99.90
59660;DHT22;45534;52.690;6.268;2024-02-21T04:37:09;9.00;99.90
59660;DHT22;45534;52.690;6.268;2024-02-21T04:39:35;9.00;99.90
59660;DHT22;45534;52.690;6.268;2024-02-21T04:42:01;9.00;99.90
59660;DHT22;45534;52.690;6.268;2024-02-21T04:44:27;9.00;99.90
59660;DHT22;45534;52.690;6.268;2024-02-21T04:46:52;9.00;99.90
59660;DHT22;45534;52.690;6.268;2024-02-21T04:49:18;9.00;99.90
59660;DHT22;45534;52.690;6.268;2024-02-21T04:51:44;9.00;99.90
59660;DHT22;45534;52.690;6.268;2024-02-21T04:54:09;9.00;99.90
59660;DHT22;45534;52.690;6.268;2024-02-21T04:56:35;9.00;99.90
59660;DHT22;45534;52.690;6.268;2024-02-21T04:59:01;9.00;99.90
59660;DHT22;45534;52.690;6.268;2024-02-21T05:01:28;9.10;99.90
59660;DHT22;45534;52.690;6.268;2024-02-21T05:03:53;9.00;99.90
59660;DHT22;45534;52.690;6.268;2024-02-21T05:06:19;9.00;99.90
59660;DHT22;45534;52.690;6.268;2024-02-21T05:08:45;9.00;99.90
59660;DHT22;45534;52.690;6.268;2024-02-21T05:11:11;9.00;99.90
59660;DHT22;45534;52.690;6.268;2024-02-21T05:13:36;9.00;99.90
59660;DHT22;45534;52.690;6.268;2024-02-21T05:16:02;9.00;99.90
59660;DHT22;45534;52.690;6.268;2024-02-21T05:18:28;9.00;99.90
59660;DHT22;45534;52.690;6.268;2024-02-21T05:20:54;9.00;99.90
59660;DHT22;45534;52.690;6.268;2024-02-21T05:23:19;9.00;99.90
59660;DHT22;45534;52.690;6.268;2024-02-21T05:25:45;9.00;99.90
59660;DHT22;45534;52.690;6.268;2024-02-21T05:28:11;9.10;99.90
59660;DHT22;45534;52.690;6.268;2024-02-21T05:30:36;9.00;99.90
59660;DHT22;45534;52.690;6.268;2024-02-21T05:33:05;9.10;99.90
59660;DHT22;45534;52.690;6.268;2024-02-21T05:35:31;9.10;99.90
59660;DHT22;45534;52.690;6.268;2024-02-21T05:37:57;9.10;99.90
59660;DHT22;45534;52.690;6.268;2024-02-21T05:40:23;9.10;99.90
59660;DHT22;45534;52.690;6.268;2024-02-21T05:42:49;9.10;99.90
59660;DHT22;45534;52.690;6.268;2024-02-21T05:45:16;9.10;99.90
59660;DHT22;45534;52.690;6.268;2024-02-21T05:47:42;9.10;99.90
59660;DHT22;45534;52.690;6.268;2024-02-21T05:50:08;9.10;99.90
59660;DHT22;45534;52.690;6.268;2024-02-21T05:52:34;9.10;99.90
59660;DHT22;45534;52.690;6.268;2024-02-21T05:54:59;9.10;99.90
59660;DHT22;45534;52.690;6.268;2024-02-21T05:57:25;9.10;99.90
59660;DHT22;45534;52.690;6.268;2024-02-21T05:59:54;9.10;99.90
59660;DHT22;45534;52.690;6.268;2024-02-21T06:02:19;9.10;99.90
59660;DHT22;45534;52.690;6.268;2024-02-21T06:04:45;9.10;99.90
59660;DHT22;45534;52.690;6.268;2024-02-21T06:07:11;9.10;99.90
59660;DHT22;45534;52.690;6.268;2024-02-21T06:09:37;9.10;99.90
59660;DHT22;45534;52.690;6.268;2024-02-21T06:12:03;9.10;99.90
59660;DHT22;45534;52.690;6.268;2024-02-21T06:14:29;9.10;99.90
59660;DHT22;45534;52.690;6.268;2024-02-21T06:16:54;9.00;99.90
59660;DHT22;45534;52.690;6.268;2024-02-21T06:19:20;9.00;99.90
59660;DHT22;45534;52.690;6.268;2024-02-21T06:21:46;9.00;99.90
59660;DHT22;45534;52.690;6.268;2024-02-21T06:24:11;9.10;99.90
59660;DHT22;45534;52.690;6.268;2024-02-21T06:26:39;9.00;99.90
59660;DHT22;45534;52.690;6.268;2024-02-21T06:29:05;9.00;99.90
59660;DHT22;45534;52.690;6.268;2024-02-21T06:31:31;9.00;99.90
59660;DHT22;45534;52.690;6.268;2024-02-21T06:33:57;9.00;99.90
59660;DHT22;45534;52.690;6.268;2024-02-21T06:36:23;9.10;99.90
59660;DHT22;45534;52.690;6.268;2024-02-21T06:38:48;9.10;99.90
59660;DHT22;45534;52.690;6.268;2024-02-21T06:41:18;9.10;99.90
59660;DHT22;45534;52.690;6.268;2024-02-21T06:43:48;9.10;99.90
59660;DHT22;45534;52.690;6.268;2024-02-21T06:46:27;9.10;99.90
59660;DHT22;45534;52.690;6.268;2024-02-21T06:48:54;9.10;99.90
59660;DHT22;45534;52.690;6.268;2024-02-21T06:51:22;9.00;99.90
59660;DHT22;45534;52.690;6.268;2024-02-21T06:53:48;9.00;99.90
59660;DHT22;45534;52.690;6.268;2024-02-21T06:56:14;9.00;99.90
59660;DHT22;45534;52.690;6.268;2024-02-21T06:58:39;9.00;99.90
59660;DHT22;45534;52.690;6.268;2024-02-21T07:01:05;9.10;99.90
59660;DHT22;45534;52.690;6.268;2024-02-21T07:03:31;9.00;99.90
59660;DHT22;45534;52.690;6.268;2024-02-21T07:05:57;9.00;99.90
59660;DHT22;45534;52.690;6.268;2024-02-21T07:08:22;9.00;99.90
59660;DHT22;45534;52.690;6.268;2024-02-21T07:10:48;9.00;99.90
59660;DHT22;45534;52.690;6.268;2024-02-21T07:13:14;9.00;99.90
59660;DHT22;45534;52.690;6.268;2024-02-21T07:15:41;9.00;99.90
59660;DHT22;45534;52.690;6.268;2024-02-21T07:18:07;9.00;99.90
59660;DHT22;45534;52.690;6.268;2024-02-21T07:20:33;9.00;99.90
59660;DHT22;45534;52.690;6.268;2024-02-21T07:22:59;9.00;99.90
59660;DHT22;45534;52.690;6.268;2024-02-21T07:25:25;9.00;99.90
59660;DHT22;45534;52.690;6.268;2024-02-21T07:27:51;9.00;99.90
59660;DHT22;45534;52.690;6.268;2024-02-21T07:30:16;9.00;99.90
59660;DHT22;45534;52.690;6.268;2024-02-21T07:32:42;9.00;99.90
59660;DHT22;45534;52.690;6.268;2024-02-21T07:35:08;9.10;99.90
59660;DHT22;45534;52.690;6.268;2024-02-21T07:37:37;9.00;99.90
59660;DHT22;45534;52.690;6.268;2024-02-21T07:40:12;9.10;99.90
59660;DHT22;45534;52.690;6.268;2024-02-21T07:42:38;9.10;99.90
59660;DHT22;45534;52.690;6.268;2024-02-21T07:45:04;9.00;99.90
59660;DHT22;45534;52.690;6.268;2024-02-21T07:47:29;9.00;99.90
59660;DHT22;45534;52.690;6.268;2024-02-21T07:49:55;9.00;99.90
59660;DHT22;45534;52.690;6.268;2024-02-21T07:52:21;9.00;99.90
59660;DHT22;45534;52.690;6.268;2024-02-21T07:54:46;9.00;99.90
59660;DHT22;45534;52.690;6.268;2024-02-21T07:57:12;9.00;99.90
59660;DHT22;45534;52.690;6.268;2024-02-21T07:59:38;9.00;99.90
59660;DHT22;45534;52.690;6.268;2024-02-21T08:02:03;9.00;99.90
59660;DHT22;45534;52.690;6.268;2024-02-21T08:04:32;9.00;99.90
59660;DHT22;45534;52.690;6.268;2024-02-21T08:06:58;9.00;99.90
59660;DHT22;45534;52.690;6.268;2024-02-21T08:09:27;9.00;99.90
59660;DHT22;45534;52.690;6.268;2024-02-21T08:11:54;9.00;99.90
59660;DHT22;45534;52.690;6.268;2024-02-21T08:14:20;9.00;99.90
59660;DHT22;45534;52.690;6.268;2024-02-21T08:16:47;9.00;99.90
59660;DHT22;45534;52.690;6.268;2024-02-21T08:19:12;9.00;99.90
59660;DHT22;45534;52.690;6.268;2024-02-21T08:21:38;9.00;99.90
59660;DHT22;45534;52.690;6.268;2024-02-21T08:24:04;9.00;99.90
59660;DHT22;45534;52.690;6.268;2024-02-21T08:26:30;9.10;99.90
59660;DHT22;45534;52.690;6.268;2024-02-21T08:28:59;9.00;99.90
59660;DHT22;45534;52.690;6.268;2024-02-21T08:31:26;9.00;99.90
59660;DHT22;45534;52.690;6.268;2024-02-21T08:34:05;9.00;99.90
59660;DHT22;45534;52.690;6.268;2024-02-21T08:36:33;9.10;99.90
59660;DHT22;45534;52.690;6.268;2024-02-21T08:38:59;9.10;99.90
59660;DHT22;45534;52.690;6.268;2024-02-21T08:41:25;9.10;99.90
59660;DHT22;45534;52.690;6.268;2024-02-21T08:43:52;9.10;99.90
59660;DHT22;45534;52.690;6.268;2024-02-21T08:46:20;9.10;99.90
59660;DHT22;45534;52.690;6.268;2024-02-21T08:48:46;9.10;99.90
59660;DHT22;45534;52.690;6.268;2024-02-21T08:51:12;9.10;99.90
59660;DHT22;45534;52.690;6.268;2024-02-21T08:53:38;9.20;99.90
59660;DHT22;45534;52.690;6.268;2024-02-21T08:56:04;9.20;99.90
59660;DHT22;45534;52.690;6.268;2024-02-21T08:58:30;9.20;99.90
59660;DHT22;45534;52.690;6.268;2024-02-21T09:00:56;9.20;99.90
59660;DHT22;45534;52.690;6.268;2024-02-21T09:03:22;9.30;99.90
59660;DHT22;45534;52.690;6.268;2024-02-21T09:05:48;9.30;99.90
59660;DHT22;45534;52.690;6.268;2024-02-21T09:08:14;9.30;99.90
59660;DHT22;45534;52.690;6.268;2024-02-21T09:10:40;9.40;99.90
59660;DHT22;45534;52.690;6.268;2024-02-21T09:13:06;9.40;99.90
59660;DHT22;45534;52.690;6.268;2024-02-21T09:15:33;9.40;99.90
59660;DHT22;45534;52.690;6.268;2024-02-21T09:17:59;9.40;99.90
59660;DHT22;45534;52.690;6.268;2024-02-21T09:20:25;9.40;99.90
59660;DHT22;45534;52.690;6.268;2024-02-21T09:22:50;9.50;99.90
59660;DHT22;45534;52.690;6.268;2024-02-21T09:25:18;9.50;99.90
59660;DHT22;45534;52.690;6.268;2024-02-21T09:27:44;9.50;99.90
59660;DHT22;45534;52.690;6.268;2024-02-21T09:30:10;9.50;99.90
59660;DHT22;45534;52.690;6.268;2024-02-21T09:32:36;9.50;99.90
59660;DHT22;45534;52.690;6.268;2024-02-21T09:35:03;9.50;99.90
59660;DHT22;45534;52.690;6.268;2024-02-21T09:37:28;9.50;99.90
59660;DHT22;45534;52.690;6.268;2024-02-21T09:39:54;9.50;99.90
59660;DHT22;45534;52.690;6.268;2024-02-21T09:42:21;9.50;99.90
59660;DHT22;45534;52.690;6.268;2024-02-21T09:44:50;9.60;99.90
59660;DHT22;45534;52.690;6.268;2024-02-21T09:47:38;9.60;99.90
59660;DHT22;45534;52.690;6.268;2024-02-21T09:50:06;9.60;99.90
59660;DHT22;45534;52.690;6.268;2024-02-21T09:52:34;9.60;99.90
59660;DHT22;45534;52.690;6.268;2024-02-21T09:55:01;9.60;99.90
59660;DHT22;45534;52.690;6.268;2024-02-21T09:57:27;9.60;99.90
59660;DHT22;45534;52.690;6.268;2024-02-21T09:59:55;9.60;99.90
59660;DHT22;45534;52.690;6.268;2024-02-21T10:02:22;9.60;99.90
59660;DHT22;45534;52.690;6.268;2024-02-21T10:04:47;9.60;99.90
59660;DHT22;45534;52.690;6.268;2024-02-21T10:07:13;9.70;99.90
59660;DHT22;45534;52.690;6.268;2024-02-21T10:09:39;9.70;99.90
59660;DHT22;45534;52.690;6.268;2024-02-21T10:12:12;9.70;99.90
59660;DHT22;45534;52.690;6.268;2024-02-21T10:14:38;9.70;99.90
59660;DHT22;45534;52.690;6.268;2024-02-21T10:17:04;9.70;99.90
59660;DHT22;45534;52.690;6.268;2024-02-21T10:19:35;9.70;99.90
59660;DHT22;45534;52.690;6.268;2024-02-21T10:22:05;9.70;99.90
59660;DHT22;45534;52.690;6.268;2024-02-21T10:24:33;9.60;99.90
59660;DHT22;45534;52.690;6.268;2024-02-21T10:27:09;9.70;99.90
59660;DHT22;45534;52.690;6.268;2024-02-21T10:29:37;9.70;99.90
59660;DHT22;45534;52.690;6.268;2024-02-21T10:32:13;9.70;99.90
59660;DHT22;45534;52.690;6.268;2024-02-21T10:34:41;9.70;99.90
59660;DHT22;45534;52.690;6.268;2024-02-21T10:37:11;9.70;99.90
59660;DHT22;45534;52.690;6.268;2024-02-21T10:39:41;9.70;99.90
59660;DHT22;45534;52.690;6.268;2024-02-21T10:42:07;9.80;99.90
59660;DHT22;45534;52.690;6.268;2024-02-21T10:44:39;9.80;99.90
59660;DHT22;45534;52.690;6.268;2024-02-21T10:47:08;9.80;99.90
59660;DHT22;45534;52.690;6.268;2024-02-21T10:49:38;9.80;99.90
59660;DHT22;45534;52.690;6.268;2024-02-21T10:54:53;9.80;99.90
59660;DHT22;45534;52.690;6.268;2024-02-21T10:57:22;9.80;99.90
59660;DHT22;45534;52.690;6.268;2024-02-21T10:59:49;9.80;99.90
59660;DHT22;45534;52.690;6.268;2024-02-21T11:02:15;9.80;99.90
59660;DHT22;45534;52.690;6.268;2024-02-21T11:04:41;9.80;99.90
59660;DHT22;45534;52.690;6.268;2024-02-21T11:07:08;9.80;99.90
59660;DHT22;45534;52.690;6.268;2024-02-21T11:09:34;9.80;99.90
59660;DHT22;45534;52.690;6.268;2024-02-21T11:12:09;9.80;99.90
59660;DHT22;45534;52.690;6.268;2024-02-21T11:14:38;9.80;99.90
59660;DHT22;45534;52.690;6.268;2024-02-21T11:17:20;9.80;99.90
59660;DHT22;45534;52.690;6.268;2024-02-21T11:19:48;9.80;99.90
59660;DHT22;45534;52.690;6.268;2024-02-21T11:22:17;9.90;99.90
59660;DHT22;45534;52.690;6.268;2024-02-21T11:24:43;9.90;99.90
59660;DHT22;45534;52.690;6.268;2024-02-21T11:29:46;9.90;99.90
59660;DHT22;45534;52.690;6.268;2024-02-21T11:32:16;9.90;99.90
59660;DHT22;45534;52.690;6.268;2024-02-21T11:34:56;9.80;99.90
59660;DHT22;45534;52.690;6.268;2024-02-21T11:37:27;9.80;99.90
59660;DHT22;45534;52.690;6.268;2024-02-21T11:39:57;9.90;99.90
59660;DHT22;45534;52.690;6.268;2024-02-21T11:42:24;9.80;99.90
59660;DHT22;45534;52.690;6.268;2024-02-21T11:44:50;9.90;99.90
59660;DHT22;45534;52.690;6.268;2024-02-21T11:47:16;9.90;99.90
59660;DHT22;45534;52.690;6.268;2024-02-21T11:49:47;9.90;99.90
59660;DHT22;45534;52.690;6.268;2024-02-21T11:52:15;9.90;99.90
59660;DHT22;45534;52.690;6.268;2024-02-21T11:54:42;9.90;99.90
59660;DHT22;45534;52.690;6.268;2024-02-21T11:57:08;9.90;99.90
59660;DHT22;45534;52.690;6.268;2024-02-21T11:59:34;9.90;99.90
59660;DHT22;45534;52.690;6.268;2024-02-21T12:02:00;9.90;99.90
59660;DHT22;45534;52.690;6.268;2024-02-21T12:04:26;9.90;99.90
59660;DHT22;45534;52.690;6.268;2024-02-21T12:06:56;9.90;99.90
59660;DHT22;45534;52.690;6.268;2024-02-21T12:09:23;9.90;99.90
59660;DHT22;45534;52.690;6.268;2024-02-21T12:12:01;9.90;99.90
59660;DHT22;45534;52.690;6.268;2024-02-21T12:14:28;9.90;99.90
59660;DHT22;45534;52.690;6.268;2024-02-21T12:16:54;10.00;99.90
59660;DHT22;45534;52.690;6.268;2024-02-21T12:19:20;10.00;99.90
59660;DHT22;45534;52.690;6.268;2024-02-21T12:21:48;10.00;99.90
59660;DHT22;45534;52.690;6.268;2024-02-21T12:24:22;9.90;99.90
59660;DHT22;45534;52.690;6.268;2024-02-21T12:26:49;9.90;99.90
59660;DHT22;45534;52.690;6.268;2024-02-21T12:29:15;9.90;99.90
59660;DHT22;45534;52.690;6.268;2024-02-21T12:31:41;9.90;99.90
59660;DHT22;45534;52.690;6.268;2024-02-21T12:34:06;9.90;99.90
59660;DHT22;45534;52.690;6.268;2024-02-21T12:36:40;9.90;99.90
59660;DHT22;45534;52.690;6.268;2024-02-21T12:39:07;9.90;99.90
59660;DHT22;45534;52.690;6.268;2024-02-21T12:41:34;9.90;99.90
59660;DHT22;45534;52.690;6.268;2024-02-21T12:44:01;9.90;99.90
59660;DHT22;45534;52.690;6.268;2024-02-21T12:46:26;9.90;99.90
59660;DHT22;45534;52.690;6.268;2024-02-21T12:48:52;10.00;99.90
59660;DHT22;45534;52.690;6.268;2024-02-21T12:51:18;10.00;99.90
59660;DHT22;45534;52.690;6.268;2024-02-21T12:53:47;10.00;99.90
59660;DHT22;45534;52.690;6.268;2024-02-21T12:56:15;10.00;99.90
59660;DHT22;45534;52.690;6.268;2024-02-21T12:58:41;10.00;99.90
59660;DHT22;45534;52.690;6.268;2024-02-21T13:01:07;10.00;99.90
59660;DHT22;45534;52.690;6.268;2024-02-21T13:03:32;10.00;99.90
59660;DHT22;45534;52.690;6.268;2024-02-21T13:05:58;9.90;99.90
59660;DHT22;45534;52.690;6.268;2024-02-21T13:08:25;9.90;99.90
59660;DHT22;45534;52.690;6.268;2024-02-21T13:10:50;9.90;99.90
59660;DHT22;45534;52.690;6.268;2024-02-21T13:13:16;10.00;99.90
59660;DHT22;45534;52.690;6.268;2024-02-21T13:15:42;10.10;99.90
59660;DHT22;45534;52.690;6.268;2024-02-21T13:18:09;10.20;99.90
59660;DHT22;45534;52.690;6.268;2024-02-21T13:20:36;10.30;99.90
59660;DHT22;45534;52.690;6.268;2024-02-21T13:23:01;10.30;99.90
59660;DHT22;45534;52.690;6.268;2024-02-21T13:25:27;10.20;99.90
59660;DHT22;45534;52.690;6.268;2024-02-21T13:27:53;10.20;99.90
59660;DHT22;45534;52.690;6.268;2024-02-21T13:30:19;10.20;99.90
59660;DHT22;45534;52.690;6.268;2024-02-21T13:32:45;10.20;99.90
59660;DHT22;45534;52.690;6.268;2024-02-21T13:35:14;10.20;99.90
59660;DHT22;45534;52.690;6.268;2024-02-21T13:37:41;10.20;99.90
59660;DHT22;45534;52.690;6.268;2024-02-21T13:40:07;10.20;99.90
59660;DHT22;45534;52.690;6.268;2024-02-21T13:42:37;10.20;99.90
59660;DHT22;45534;52.690;6.268;2024-02-21T13:45:03;10.20;99.90
59660;DHT22;45534;52.690;6.268;2024-02-21T13:47:31;10.10;99.90
59660;DHT22;45534;52.690;6.268;2024-02-21T13:49:57;10.10;99.90
59660;DHT22;45534;52.690;6.268;2024-02-21T13:52:22;10.10;99.90
59660;DHT22;45534;52.690;6.268;2024-02-21T13:54:54;10.10;99.90
59660;DHT22;45534;52.690;6.268;2024-02-21T13:57:19;10.10;99.90
59660;DHT22;45534;52.690;6.268;2024-02-21T13:59:45;10.00;99.90
59660;DHT22;45534;52.690;6.268;2024-02-21T14:02:11;10.10;99.90
59660;DHT22;45534;52.690;6.268;2024-02-21T14:04:37;10.00;99.90
59660;DHT22;45534;52.690;6.268;2024-02-21T14:07:03;10.10;99.90
59660;DHT22;45534;52.690;6.268;2024-02-21T14:09:29;10.10;99.90
59660;DHT22;45534;52.690;6.268;2024-02-21T14:11:55;10.00;99.90
59660;DHT22;45534;52.690;6.268;2024-02-21T14:14:21;10.10;99.90
59660;DHT22;45534;52.690;6.268;2024-02-21T14:16:47;10.10;99.90
59660;DHT22;45534;52.690;6.268;2024-02-21T14:19:14;10.10;99.90
59660;DHT22;45534;52.690;6.268;2024-02-21T14:21:40;10.10;99.90
59660;DHT22;45534;52.690;6.268;2024-02-21T14:24:06;10.10;99.90
59660;DHT22;45534;52.690;6.268;2024-02-21T14:26:32;10.10;99.90
59660;DHT22;45534;52.690;6.268;2024-02-21T14:28:58;10.10;99.90
59660;DHT22;45534;52.690;6.268;2024-02-21T14:31:24;10.10;99.90
59660;DHT22;45534;52.690;6.268;2024-02-21T14:33:51;10.00;99.90
59660;DHT22;45534;52.690;6.268;2024-02-21T14:36:17;10.00;99.90
59660;DHT22;45534;52.690;6.268;2024-02-21T14:38:43;10.00;99.90
59660;DHT22;45534;52.690;6.268;2024-02-21T14:41:10;10.00;99.90
59660;DHT22;45534;52.690;6.268;2024-02-21T14:43:39;10.00;99.90
59660;DHT22;45534;52.690;6.268;2024-02-21T14:46:05;10.00;99.90
59660;DHT22;45534;52.690;6.268;2024-02-21T14:48:32;10.00;99.90
59660;DHT22;45534;52.690;6.268;2024-02-21T14:50:58;10.00;99.90
59660;DHT22;45534;52.690;6.268;2024-02-21T14:53:24;10.00;99.90
59660;DHT22;45534;52.690;6.268;2024-02-21T14:55:50;10.00;99.90
59660;DHT22;45534;52.690;6.268;2024-02-21T14:58:16;10.00;99.90
59660;DHT22;45534;52.690;6.268;2024-02-21T15:00:44;9.90;99.90
59660;DHT22;45534;52.690;6.268;2024-02-21T15:03:09;10.00;99.90
59660;DHT22;45534;52.690;6.268;2024-02-21T15:05:36;10.00;99.90
59660;DHT22;45534;52.690;6.268;2024-02-21T15:08:03;9.90;99.90
59660;DHT22;45534;52.690;6.268;2024-02-21T15:10:29;9.90;99.90
59660;DHT22;45534;52.690;6.268;2024-02-21T15:12:54;10.00;99.90
59660;DHT22;45534;52.690;6.268;2024-02-21T15:15:21;9.90;99.90
59660;DHT22;45534;52.690;6.268;2024-02-21T15:17:47;9.90;99.90
59660;DHT22;45534;52.690;6.268;2024-02-21T15:20:13;9.90;99.90
59660;DHT22;45534;52.690;6.268;2024-02-21T15:22:38;9.90;99.90
59660;DHT22;45534;52.690;6.268;2024-02-21T15:25:04;9.90;99.90
59660;DHT22;45534;52.690;6.268;2024-02-21T15:27:30;10.00;99.90
59660;DHT22;45534;52.690;6.268;2024-02-21T15:29:56;9.90;99.90
59660;DHT22;45534;52.690;6.268;2024-02-21T15:32:25;9.90;99.90
59660;DHT22;45534;52.690;6.268;2024-02-21T15:34:51;10.00;99.90
59660;DHT22;45534;52.690;6.268;2024-02-21T15:37:16;9.90;99.90
59660;DHT22;45534;52.690;6.268;2024-02-21T15:39:42;9.90;99.90
59660;DHT22;45534;52.690;6.268;2024-02-21T15:42:11;9.90;99.90
59660;DHT22;45534;52.690;6.268;2024-02-21T15:44:37;9.90;99.90
59660;DHT22;45534;52.690;6.268;2024-02-21T15:47:03;9.90;99.90